Time;durP1;ratioP1;P1;durP2;ratioP2;P2;SDS_P1;SDS_P2;PMS_P1;PMS_P2;Temp;Humidity;BMP_temperature;BMP_pressure;BME280_temperature;BME280_humidity;BME280_pressure;Samples;Min_cycle;Max_cycle;Signal;HPM_P1;HPM_P2
2021/08/09 00:00:38;;;;;;;6.15;2.90;;;;;;;16.01;65.38;99478.97;5028784;28;20040;-66
2021/08/09 00:03:04;;;;;;;5.00;2.05;;;;;;;15.98;65.21;99480.03;5029157;28;20448;-66
2021/08/09 00:05:30;;;;;;;5.00;2.60;;;;;;;15.97;65.48;99481.00;5028735;28;20030;-65
2021/08/09 00:07:56;;;;;;;3.70;2.17;;;;;;;15.93;65.64;99479.56;5028158;28;20087;-65
2021/08/09 00:10:21;;;;;;;5.00;2.63;;;;;;;15.89;65.79;99475.41;5029138;28;20087;-65
2021/08/09 00:12:46;;;;;;;3.92;2.05;;;;;;;15.86;65.59;99476.50;5029250;28;20037;-65
2021/08/09 00:15:12;;;;;;;4.18;1.95;;;;;;;15.88;65.56;99487.03;5029482;28;20029;-64
2021/08/09 00:17:37;;;;;;;7.15;2.63;;;;;;;15.85;65.74;99481.91;5028046;28;20041;-65
2021/08/09 00:20:03;;;;;;;5.43;2.28;;;;;;;15.83;65.67;99483.88;5029006;28;20121;-65
2021/08/09 00:22:29;;;;;;;5.60;2.17;;;;;;;15.80;65.72;99484.09;5028451;28;20045;-65
2021/08/09 00:24:54;;;;;;;3.92;2.05;;;;;;;15.78;65.64;99481.56;5028392;28;20095;-65
2021/08/09 00:27:19;;;;;;;6.47;2.35;;;;;;;15.75;65.97;99473.81;5027903;28;20029;-66
2021/08/09 00:29:45;;;;;;;5.68;2.13;;;;;;;15.75;65.99;99475.63;5029381;28;20034;-66
2021/08/09 00:32:10;;;;;;;3.95;2.20;;;;;;;15.73;65.76;99474.91;5028947;28;20037;-65
2021/08/09 00:34:36;;;;;;;5.53;2.58;;;;;;;15.72;65.99;99473.19;5028670;28;20404;-65
2021/08/09 00:37:01;;;;;;;6.38;2.75;;;;;;;15.73;65.97;99480.22;5027923;28;20377;-65
2021/08/09 00:39:26;;;;;;;3.38;2.13;;;;;;;15.74;66.02;99484.56;5028793;28;20029;-66
2021/08/09 00:41:52;;;;;;;3.85;2.17;;;;;;;15.71;65.80;99484.81;5028645;28;20037;-66
2021/08/09 00:44:17;;;;;;;5.60;2.58;;;;;;;15.68;66.09;99483.19;5028339;28;20053;-66
2021/08/09 00:46:42;;;;;;;4.65;2.13;;;;;;;15.70;66.41;99485.75;5030412;28;20041;-65
2021/08/09 00:49:08;;;;;;;6.00;2.63;;;;;;;15.70;66.03;99483.09;5031132;28;20567;-66
2021/08/09 00:51:33;;;;;;;7.50;2.72;;;;;;;15.72;66.06;99476.69;5032811;28;20034;-66
2021/08/09 00:53:59;;;;;;;5.53;2.30;;;;;;;15.74;65.88;99473.94;5030676;28;20041;-66
2021/08/09 00:56:24;;;;;;;6.45;2.15;;;;;;;15.71;66.12;99480.31;5030061;28;20075;-66
2021/08/09 00:58:49;;;;;;;4.35;2.25;;;;;;;15.70;66.28;99475.13;5031404;28;20037;-66
2021/08/09 01:01:15;;;;;;;5.43;2.50;;;;;;;15.70;66.31;99475.97;5009546;28;20037;-65
2021/08/09 01:03:40;;;;;;;6.30;3.00;;;;;;;15.70;66.24;99469.81;5032023;28;20148;-65
2021/08/09 01:06:06;;;;;;;5.35;2.63;;;;;;;15.71;66.24;99468.84;5032150;28;20033;-66
2021/08/09 01:09:14;;;;;;;6.57;2.50;;;;;;;15.71;66.24;99472.34;5031763;28;20107;-66
2021/08/09 01:11:44;;;;;;;6.85;2.30;;;;;;;15.72;66.00;99473.19;5031959;28;20039;-66
2021/08/09 01:14:28;;;;;;;4.43;2.30;;;;;;;15.72;66.29;99478.50;5032097;28;20033;-66
2021/08/09 01:16:55;;;;;;;7.47;3.05;;;;;;;15.74;66.04;99480.09;5029799;28;20045;-66
2021/08/09 01:19:51;;;;;;;10.27;2.58;;;;;;;15.74;66.11;99477.44;5032233;28;20037;-66
2021/08/09 01:22:31;;;;;;;5.72;2.47;;;;;;;15.74;66.26;99476.59;5031899;28;20112;-65
2021/08/09 01:25:41;;;;;;;9.60;2.33;;;;;;;15.75;66.09;99476.50;5031901;28;20049;-65
2021/08/09 01:28:08;;;;;;;5.30;2.70;;;;;;;15.72;66.22;99473.19;5030869;28;20045;-65
2021/08/09 01:30:37;;;;;;;4.47;2.45;;;;;;;15.74;66.16;99473.94;5031544;28;20037;-65
2021/08/09 01:33:04;;;;;;;7.10;2.90;;;;;;;15.74;66.18;99473.94;5031826;28;20120;-65
2021/08/09 01:35:31;;;;;;;5.30;2.67;;;;;;;15.75;65.91;99473.81;5031925;28;20029;-65
2021/08/09 01:37:59;;;;;;;6.75;2.85;;;;;;;15.79;66.15;99477.09;5031181;28;20040;-65
2021/08/09 01:40:25;;;;;;;6.18;2.40;;;;;;;15.81;65.82;99483.97;5031868;28;20539;-65
2021/08/09 01:42:51;;;;;;;2.67;1.65;;;;;;;15.81;65.82;99489.28;5032127;28;20077;-65
2021/08/09 01:45:17;;;;;;;6.53;2.22;;;;;;;15.82;65.70;99496.28;5031506;28;20044;-65
2021/08/09 01:47:44;;;;;;;8.18;2.03;;;;;;;15.82;65.92;99504.28;5030332;28;20109;-65
2021/08/09 01:50:11;;;;;;;7.78;2.60;;;;;;;15.86;65.82;99496.94;5031332;28;20034;-65
2021/08/09 01:52:39;;;;;;;4.93;2.40;;;;;;;15.88;65.50;99495.84;5031301;28;20113;-65
2021/08/09 01:55:05;;;;;;;5.53;2.17;;;;;;;15.91;65.34;99505.41;5031080;28;20059;-65
2021/08/09 01:57:31;;;;;;;6.35;2.90;;;;;;;15.90;65.34;99501.06;5029369;28;20060;-65
2021/08/09 01:59:57;;;;;;;5.28;2.40;;;;;;;15.91;65.47;99500.09;5031285;28;20073;-65
2021/08/09 02:02:26;;;;;;;6.28;2.03;;;;;;;15.93;65.61;99498.16;5031482;28;20104;-65
2021/08/09 02:04:52;;;;;;;3.80;2.08;;;;;;;15.93;65.47;99494.66;5030866;28;20100;-65
2021/08/09 02:07:17;;;;;;;7.75;2.30;;;;;;;15.94;65.37;99483.88;5029662;28;20042;-65
2021/08/09 02:09:42;;;;;;;5.68;2.45;;;;;;;15.95;65.13;99485.59;5031122;28;20041;-65
2021/08/09 02:12:08;;;;;;;9.50;2.30;;;;;;;15.92;65.82;99496.44;5031233;28;20042;-65
2021/08/09 02:14:40;;;;;;;7.38;2.60;;;;;;;15.89;65.84;99502.84;5030923;28;20033;-65
2021/08/09 02:17:16;;;;;;;6.75;2.47;;;;;;;15.89;65.89;99499.34;5030300;28;20039;-65
2021/08/09 02:19:49;;;;;;;4.82;2.35;;;;;;;15.93;65.68;99495.50;5030853;28;20040;-64
2021/08/09 02:22:28;;;;;;;4.25;2.45;;;;;;;15.86;65.90;99494.28;5030782;28;20450;-65
2021/08/09 02:25:03;;;;;;;8.98;2.97;;;;;;;15.81;65.91;99499.09;5010515;28;20038;-65
2021/08/09 02:27:35;;;;;;;6.95;1.90;;;;;;;15.79;66.37;99496.53;5009744;28;20034;-65
2021/08/09 02:30:02;;;;;;;5.35;2.65;;;;;;;15.81;66.26;99491.13;5010936;28;20044;-65
2021/08/09 02:32:30;;;;;;;7.50;2.72;;;;;;;15.76;66.14;99499.44;5010839;28;20036;-65
2021/08/09 02:34:57;;;;;;;6.43;2.67;;;;;;;15.72;66.35;99495.31;5010750;28;20089;-64
2021/08/09 02:37:25;;;;;;;5.53;2.47;;;;;;;15.74;65.77;99490.72;5010252;28;20037;-64
2021/08/09 02:39:53;;;;;;;5.63;2.35;;;;;;;15.75;66.11;99491.56;5010997;28;20132;-64
2021/08/09 02:42:19;;;;;;;4.20;2.20;;;;;;;15.75;65.95;99486.25;5014885;28;20568;-64
2021/08/09 02:44:45;;;;;;;3.63;2.22;;;;;;;15.75;65.99;99489.78;5007940;28;20037;-65
2021/08/09 02:47:12;;;;;;;5.93;2.17;;;;;;;15.77;66.00;99489.63;5009935;28;20054;-65
2021/08/09 02:49:45;;;;;;;4.30;2.30;;;;;;;15.78;65.90;99494.00;5010792;28;20022;-65
2021/08/09 02:52:11;;;;;;;4.20;2.33;;;;;;;15.73;65.91;99486.38;5010815;28;20053;-64
2021/08/09 02:54:37;;;;;;;5.22;2.90;;;;;;;15.73;66.08;99489.03;5010338;28;20034;-65
2021/08/09 02:57:04;;;;;;;3.90;2.20;;;;;;;15.71;66.25;99482.16;5009868;28;20034;-65
2021/08/09 02:59:29;;;;;;;7.95;2.60;;;;;;;15.72;66.05;99482.00;5010113;28;20034;-65
2021/08/09 03:01:55;;;;;;;4.45;2.17;;;;;;;15.73;66.02;99485.53;5010313;28;20034;-65
2021/08/09 03:04:22;;;;;;;11.10;4.10;;;;;;;15.73;66.08;99474.91;5010608;28;20060;-65
2021/08/09 03:06:50;;;;;;;5.40;2.13;;;;;;;15.74;66.14;99488.06;4998438;28;20077;-65
2021/08/09 03:09:15;;;;;;;4.53;1.92;;;;;;;15.75;66.04;99478.28;5008040;28;20064;-64
2021/08/09 03:11:42;;;;;;;4.72;2.08;;;;;;;15.75;65.93;99478.28;5009980;28;20577;-68
2021/08/09 03:14:20;;;;;;;5.00;2.13;;;;;;;15.78;66.01;99486.03;5006826;28;20410;-65
2021/08/09 03:16:46;;;;;;;5.30;2.28;;;;;;;15.76;66.01;99482.66;5009320;28;20041;-65
2021/08/09 03:19:12;;;;;;;4.57;1.90;;;;;;;15.76;65.81;99485.31;5008908;28;20501;-65
2021/08/09 03:21:37;;;;;;;5.38;2.45;;;;;;;15.78;65.88;99484.22;5010158;28;20030;-65
2021/08/09 03:24:02;;;;;;;4.38;2.03;;;;;;;15.79;65.63;99491.22;5009924;28;20042;-64
2021/08/09 03:26:28;;;;;;;4.78;2.63;;;;;;;15.79;65.67;99491.22;5009246;28;20044;-65
2021/08/09 03:28:53;;;;;;;4.78;2.45;;;;;;;15.80;65.43;99494.72;5010172;28;20494;-65
2021/08/09 03:31:18;;;;;;;5.95;3.67;;;;;;;15.75;66.05;99500.41;5010560;28;20068;-65
2021/08/09 03:33:44;;;;;;;5.10;3.55;;;;;;;15.76;65.78;99495.94;5009994;28;20057;-64
2021/08/09 03:36:09;;;;;;;4.18;1.77;;;;;;;15.76;65.70;99493.28;5009769;28;20037;-65
2021/08/09 03:38:34;;;;;;;4.75;2.67;;;;;;;15.77;65.72;99500.28;5008412;28;20041;-66
2021/08/09 03:41:00;;;;;;;6.35;2.20;;;;;;;15.79;65.94;99501.00;5009961;28;20038;-66
2021/08/09 03:43:25;;;;;;;4.15;2.08;;;;;;;15.80;65.52;99497.38;5009894;28;20038;-66
2021/08/09 03:45:50;;;;;;;3.60;2.25;;;;;;;15.81;65.89;99496.44;5010065;28;20045;-66
2021/08/09 03:48:16;;;;;;;5.63;2.08;;;;;;;15.78;65.39;99494.00;5008208;28;20030;-65
2021/08/09 03:50:41;;;;;;;6.35;2.22;;;;;;;15.76;66.06;99493.28;5008828;28;20042;-66
2021/08/09 03:53:06;;;;;;;5.43;2.05;;;;;;;15.73;66.15;99493.50;5007965;28;20065;-66
2021/08/09 03:55:32;;;;;;;4.82;1.58;;;;;;;15.73;66.28;99490.84;5009712;28;20398;-66
2021/08/09 03:57:57;;;;;;;3.15;2.20;;;;;;;15.71;66.02;99490.97;5009039;28;20037;-66
2021/08/09 04:00:22;;;;;;;7.93;3.80;;;;;;;15.65;66.12;99494.91;5010382;28;20121;-66
2021/08/09 04:02:48;;;;;;;4.10;2.38;;;;;;;15.65;66.46;99492.25;5009247;28;20034;-66
2021/08/09 04:05:13;;;;;;;2.38;1.90;;;;;;;15.66;66.50;99488.63;5009642;28;20565;-66
2021/08/09 04:07:38;;;;;;;4.18;2.38;;;;;;;15.68;66.33;99488.50;5007316;28;20052;-66
2021/08/09 04:10:06;;;;;;;3.53;1.98;;;;;;;15.68;66.20;99489.34;5009116;28;20491;-65
2021/08/09 04:12:31;;;;;;;3.33;2.13;;;;;;;15.68;66.25;99499.13;5009481;28;20435;-65
2021/08/09 04:14:57;;;;;;;6.20;2.45;;;;;;;15.68;66.27;99499.13;5008449;28;20046;-65
2021/08/09 04:17:22;;;;;;;6.35;2.30;;;;;;;15.70;66.13;99501.69;5007304;28;20076;-65
2021/08/09 04:19:48;;;;;;;9.65;3.60;;;;;;;15.68;66.03;99504.44;5009348;28;20054;-66
2021/08/09 04:22:13;;;;;;;5.97;2.47;;;;;;;15.67;66.19;99506.25;5007289;28;20034;-65
2021/08/09 04:24:39;;;;;;;4.78;2.10;;;;;;;15.64;66.09;99518.91;5009082;28;20045;-65
2021/08/09 04:27:04;;;;;;;4.68;2.30;;;;;;;15.63;65.85;99512.75;5008428;28;20030;-65
2021/08/09 04:29:29;;;;;;;3.47;2.08;;;;;;;15.63;66.10;99512.75;5009369;28;20441;-65
2021/08/09 04:31:55;;;;;;;6.25;2.50;;;;;;;15.62;65.81;99511.06;5009596;28;20109;-64
2021/08/09 04:34:20;;;;;;;4.85;2.15;;;;;;;15.63;65.87;99504.78;5039505;28;20100;-65
2021/08/09 04:36:45;;;;;;;7.10;1.95;;;;;;;15.63;65.86;99504.78;5028308;28;20053;-65
2021/08/09 04:39:11;;;;;;;5.72;2.28;;;;;;;15.63;65.71;99499.47;5029454;28;20060;-66
2021/08/09 04:41:36;;;;;;;3.67;1.73;;;;;;;15.62;65.72;99495.09;5029171;28;20369;-66
2021/08/09 04:44:01;;;;;;;3.97;1.77;;;;;;;15.64;66.05;99490.53;5028585;28;20404;-65
2021/08/09 04:46:27;;;;;;;2.88;1.80;;;;;;;15.63;65.89;99494.16;5028252;28;20386;-65
2021/08/09 04:48:52;;;;;;;7.03;2.08;;;;;;;15.62;65.87;99492.44;5028003;28;20117;-66
2021/08/09 04:51:18;;;;;;;4.53;2.15;;;;;;;15.63;65.87;99502.13;5029099;28;20091;-66
2021/08/09 04:53:44;;;;;;;5.25;2.35;;;;;;;15.65;65.84;99500.22;5028602;28;20021;-66
2021/08/09 04:56:09;;;;;;;5.38;2.50;;;;;;;15.67;65.94;99508.91;5028834;28;20060;-64
2021/08/09 04:58:35;;;;;;;4.75;2.30;;;;;;;15.67;65.71;99502.75;5027767;28;20060;-66
2021/08/09 05:01:00;;;;;;;2.80;1.70;;;;;;;15.70;65.85;99502.53;5028518;28;20088;-65
2021/08/09 05:03:25;;;;;;;4.90;2.55;;;;;;;15.72;65.70;99505.09;5002979;28;20041;-65
2021/08/09 05:05:51;;;;;;;7.95;2.80;;;;;;;15.72;65.77;99500.63;5005259;28;20041;-65
2021/08/09 05:08:17;;;;;;;3.63;1.90;;;;;;;15.72;65.47;99497.13;5007427;28;20087;-65
2021/08/09 05:10:42;;;;;;;3.92;2.40;;;;;;;15.75;65.69;99499.53;5005302;28;20030;-65
2021/08/09 05:13:07;;;;;;;5.38;2.28;;;;;;;15.75;65.74;99497.75;4989167;28;20034;-65
2021/08/09 05:15:35;;;;;;;6.30;2.22;;;;;;;15.77;65.61;99502.94;4988978;28;20031;-66
2021/08/09 05:18:00;;;;;;;5.47;1.90;;;;;;;15.79;65.86;99506.31;5021141;28;20571;-67
2021/08/09 05:20:26;;;;;;;9.50;4.30;;;;;;;15.82;65.65;99512.25;5027084;28;20219;-66
2021/08/09 05:22:51;;;;;;;4.25;2.30;;;;;;;15.86;65.27;99510.22;5025983;28;20092;-67
2021/08/09 05:25:17;;;;;;;3.40;2.20;;;;;;;15.86;65.10;99502.25;5025030;28;20041;-66
2021/08/09 05:27:42;;;;;;;3.97;2.10;;;;;;;15.89;65.30;99512.63;5027011;28;20033;-66
2021/08/09 05:30:09;;;;;;;3.10;1.92;;;;;;;15.92;65.46;99514.22;5026648;28;20462;-66
2021/08/09 05:32:39;;;;;;;4.15;2.17;;;;;;;15.95;64.93;99522.81;5028542;28;20033;-66
2021/08/09 05:35:07;;;;;;;3.80;2.13;;;;;;;15.97;65.12;99510.22;5031791;28;20034;-67
2021/08/09 05:37:34;;;;;;;4.32;2.03;;;;;;;16.01;65.17;99521.50;5031424;28;20519;-69
2021/08/09 05:39:59;;;;;;;6.63;2.20;;;;;;;16.04;65.23;99522.09;5031604;28;20041;-66
2021/08/09 05:42:25;;;;;;;4.70;2.50;;;;;;;16.07;65.73;99526.34;5031776;28;20090;-67
2021/08/09 05:44:50;;;;;;;5.95;3.17;;;;;;;16.07;65.22;99535.19;5031233;28;20454;-66
2021/08/09 05:47:15;;;;;;;5.38;2.10;;;;;;;16.09;64.98;99535.06;5029955;28;20087;-67
2021/08/09 05:49:41;;;;;;;5.97;2.40;;;;;;;16.09;65.56;99538.56;5030543;28;20044;-67
2021/08/09 05:52:06;;;;;;;4.35;1.90;;;;;;;16.09;65.65;99535.06;5031453;28;20036;-66
2021/08/09 05:54:31;;;;;;;5.00;1.95;;;;;;;16.13;65.59;99541.00;5031845;28;20095;-67
2021/08/09 05:56:57;;;;;;;6.35;2.67;;;;;;;16.14;65.53;99538.19;5030672;28;20056;-66
2021/08/09 05:59:22;;;;;;;4.30;2.20;;;;;;;16.15;65.04;99531.09;5031157;28;20040;-65
2021/08/09 06:01:47;;;;;;;4.13;2.22;;;;;;;16.15;65.05;99529.28;5031298;28;20462;-66
2021/08/09 06:04:13;;;;;;;5.07;2.20;;;;;;;16.13;65.16;99530.38;5030883;28;20389;-66
2021/08/09 06:06:38;;;;;;;5.00;2.47;;;;;;;16.11;65.11;99533.13;5030341;28;20057;-66
2021/08/09 06:09:03;;;;;;;5.22;2.35;;;;;;;16.09;64.88;99537.72;5031345;28;20053;-65
2021/08/09 06:11:29;;;;;;;5.47;2.30;;;;;;;16.12;65.13;99541.94;5031018;28;20112;-66
2021/08/09 06:13:54;;;;;;;5.75;2.30;;;;;;;16.17;65.26;99545.09;5029651;28;20147;-66
2021/08/09 06:16:19;;;;;;;7.05;2.63;;;;;;;16.22;64.95;99551.78;5030120;28;20378;-66
2021/08/09 06:18:45;;;;;;;3.83;2.63;;;;;;;16.26;64.92;99547.06;5028813;28;20037;-66
2021/08/09 06:21:10;;;;;;;5.55;2.42;;;;;;;16.30;64.63;99548.53;5027862;28;20072;-66
2021/08/09 06:23:36;;;;;;;3.83;2.63;;;;;;;16.36;64.51;99545.38;5028801;28;20034;-66
2021/08/09 06:26:02;;;;;;;5.47;1.90;;;;;;;16.40;64.33;99548.69;5030878;28;20497;-66
2021/08/09 06:28:27;;;;;;;4.68;2.17;;;;;;;16.43;64.60;99543.09;5029461;28;20039;-67
2021/08/09 06:30:52;;;;;;;5.30;2.25;;;;;;;16.46;64.54;99545.53;5029404;28;20030;-67
2021/08/09 06:33:18;;;;;;;3.22;2.03;;;;;;;16.48;64.53;99541.78;5029089;28;20091;-67
2021/08/09 06:35:43;;;;;;;3.25;1.70;;;;;;;16.57;64.14;99542.06;5028844;28;20129;-66
2021/08/09 06:38:09;;;;;;;8.18;2.60;;;;;;;16.60;63.41;99544.47;5021359;28;20514;-67
2021/08/09 06:40:42;;;;;;;5.55;2.65;;;;;;;16.72;63.30;99539.03;5011529;28;20034;-66
2021/08/09 06:43:08;;;;;;;4.97;2.33;;;;;;;16.81;62.81;99540.16;5007712;28;20034;-66
2021/08/09 06:45:33;;;;;;;4.00;2.42;;;;;;;16.87;62.52;99542.31;5010286;28;20139;-66
2021/08/09 06:47:59;;;;;;;7.10;3.15;;;;;;;16.92;62.72;99545.47;5010169;28;20506;-67
2021/08/09 06:50:24;;;;;;;5.78;2.63;;;;;;;17.02;62.10;99545.56;5008769;28;20568;-67
2021/08/09 06:52:49;;;;;;;4.18;1.80;;;;;;;17.08;61.66;99549.56;5010496;28;20040;-67
2021/08/09 06:55:14;;;;;;;7.03;2.78;;;;;;;17.10;61.35;99545.78;5004640;28;20031;-67
2021/08/09 06:57:40;;;;;;;4.75;2.13;;;;;;;17.21;61.64;99547.63;5007930;28;20032;-66
2021/08/09 07:00:07;;;;;;;10.40;2.78;;;;;;;17.27;60.82;99554.25;5008850;28;20084;-67
2021/08/09 07:02:33;;;;;;;6.90;2.10;;;;;;;17.41;60.60;99555.81;5008751;28;20030;-67
2021/08/09 07:04:59;;;;;;;4.97;1.90;;;;;;;17.52;60.50;99553.09;5008671;28;20042;-66
2021/08/09 07:07:24;;;;;;;6.82;2.67;;;;;;;17.68;60.20;99553.53;5007142;28;20101;-67
2021/08/09 07:09:50;;;;;;;3.95;1.80;;;;;;;17.82;59.70;99549.78;5015035;28;20536;-67
2021/08/09 07:12:15;;;;;;;4.57;2.00;;;;;;;17.88;59.28;99556.41;5029168;28;20682;-67
2021/08/09 07:14:41;;;;;;;7.72;2.47;;;;;;;17.87;59.14;99557.38;5030087;28;20045;-67
2021/08/09 07:17:06;;;;;;;4.10;1.80;;;;;;;17.83;58.70;99555.97;5029236;28;20037;-67
2021/08/09 07:19:32;;;;;;;3.70;1.80;;;;;;;17.93;58.34;99560.38;5029164;28;20095;-67
2021/08/09 07:21:57;;;;;;;9.45;2.50;;;;;;;18.10;58.66;99560.81;5029803;28;20041;-67
2021/08/09 07:24:22;;;;;;;12.57;2.78;;;;;;;18.16;58.26;99561.13;5028818;28;20037;-66
2021/08/09 07:26:48;;;;;;;5.45;2.60;;;;;;;18.38;57.69;99559.28;5010672;28;20030;-67
2021/08/09 07:29:14;;;;;;;5.85;2.17;;;;;;;18.78;56.70;99561.22;4993485;28;20037;-66
2021/08/09 07:31:39;;;;;;;7.68;3.58;;;;;;;19.03;56.20;99562.63;4995171;28;20037;-66
2021/08/09 07:34:05;;;;;;;4.22;1.80;;;;;;;18.98;56.22;99557.69;5002607;28;20037;-66
2021/08/09 07:36:30;;;;;;;5.60;2.58;;;;;;;19.03;55.96;99560.78;5002984;28;20058;-66
2021/08/09 07:38:55;;;;;;;3.10;1.83;;;;;;;19.27;55.99;99555.09;5001808;28;20049;-67
2021/08/09 07:41:21;;;;;;;5.05;2.60;;;;;;;19.53;54.66;99558.09;5000655;28;20049;-67
2021/08/09 07:43:48;;;;;;;7.65;2.33;;;;;;;19.65;54.29;99556.13;5019202;28;20042;-67
2021/08/09 07:46:13;;;;;;;8.48;2.22;;;;;;;19.58;54.37;99563.03;5020897;28;20042;-67
2021/08/09 07:48:39;;;;;;;4.93;2.08;;;;;;;19.60;53.94;99555.72;5008646;28;20036;-67
2021/08/09 07:51:04;;;;;;;4.28;2.00;;;;;;;19.72;53.91;99551.97;5020339;28;20121;-66
2021/08/09 07:53:29;;;;;;;10.57;2.30;;;;;;;19.91;53.27;99555.59;5023789;28;20144;-68
2021/08/09 07:55:55;;;;;;;6.65;2.25;;;;;;;19.79;52.75;99554.91;5022822;28;20063;-67
2021/08/09 07:58:20;;;;;;;5.75;2.20;;;;;;;19.65;52.86;99552.63;5022195;28;20091;-67
2021/08/09 08:00:46;;;;;;;4.07;2.45;;;;;;;19.79;52.80;99543.34;5009907;28;20041;-67
2021/08/09 08:03:11;;;;;;;5.88;2.10;;;;;;;19.89;52.55;99549.56;5023489;28;20045;-66
2021/08/09 08:05:37;;;;;;;6.05;2.28;;;;;;;20.02;52.94;99549.28;5023987;28;20045;-67
2021/08/09 08:08:03;;;;;;;3.28;1.98;;;;;;;20.16;52.90;99551.53;5022856;28;20085;-67
2021/08/09 08:10:28;;;;;;;6.20;1.98;;;;;;;20.12;51.75;99545.59;5023079;28;20033;-67
2021/08/09 08:12:54;;;;;;;5.47;2.22;;;;;;;20.06;51.74;99548.88;5023212;28;20118;-71
2021/08/09 08:15:19;;;;;;;6.25;2.88;;;;;;;20.03;52.43;99545.59;5023663;28;20512;-70
2021/08/09 08:17:45;;;;;;;4.82;1.85;;;;;;;20.00;52.93;99544.06;5022280;28;20025;-72
2021/08/09 08:20:11;;;;;;;8.07;2.90;;;;;;;20.09;52.96;99551.25;5016276;28;20041;-71
2021/08/09 08:22:37;;;;;;;4.05;2.10;;;;;;;20.10;52.62;99557.44;5001793;28;20033;-72
2021/08/09 08:25:03;;;;;;;4.65;1.80;;;;;;;20.20;52.55;99552.06;5003192;28;20572;-73
2021/08/09 08:27:28;;;;;;;4.45;1.85;;;;;;;20.26;52.59;99548.84;5002359;28;20054;-72
2021/08/09 08:29:54;;;;;;;3.63;2.00;;;;;;;20.44;52.29;99548.94;5001393;28;20087;-72
2021/08/09 08:32:19;;;;;;;6.47;1.90;;;;;;;20.52;52.35;99546.38;5002275;28;20044;-71
2021/08/09 08:34:44;;;;;;;7.43;2.75;;;;;;;20.63;51.95;99548.09;4968630;28;20038;-71
2021/08/09 08:37:10;;;;;;;6.63;2.70;;;;;;;20.67;51.53;99544.94;4982975;28;20767;-71
2021/08/09 08:39:35;;;;;;;5.07;2.20;;;;;;;20.67;51.78;99547.63;4990073;28;20049;-72
2021/08/09 08:42:00;;;;;;;6.00;2.75;;;;;;;20.67;51.88;99557.50;5003706;28;20038;-71
2021/08/09 08:44:26;;;;;;;3.65;1.90;;;;;;;20.63;52.09;99553.44;5002876;28;20042;-70
2021/08/09 08:46:53;;;;;;;6.80;2.05;;;;;;;20.65;52.44;99546.06;5002521;28;20042;-72
2021/08/09 08:49:19;;;;;;;5.53;2.10;;;;;;;20.52;52.22;99549.06;5003237;28;20060;-72
2021/08/09 08:51:46;;;;;;;2.13;1.65;;;;;;;20.46;52.12;99553.16;5003112;28;20046;-71
2021/08/09 08:54:13;;;;;;;3.92;2.05;;;;;;;20.41;52.48;99557.28;5003329;28;20125;-70
2021/08/09 08:56:43;;;;;;;4.45;1.92;;;;;;;20.33;50.83;99548.13;5002717;28;20069;-70
2021/08/09 08:59:13;;;;;;;5.03;2.00;;;;;;;20.25;50.93;99560.53;4999795;28;20120;-69
2021/08/09 09:01:40;;;;;;;6.75;2.08;;;;;;;20.08;51.53;99557.59;5002493;28;20630;-72
2021/08/09 09:04:33;;;;;;;4.85;2.15;;;;;;;20.06;51.39;99554.22;5002917;28;20050;-72
2021/08/09 09:07:04;;;;;;;4.70;1.90;;;;;;;20.10;52.03;99565.47;4993282;28;20045;-70
2021/08/09 09:09:33;;;;;;;3.63;2.00;;;;;;;19.94;51.51;99568.72;4990909;28;20038;-70
2021/08/09 09:12:15;;;;;;;5.10;2.05;;;;;;;19.98;51.92;99564.75;4987089;28;20039;-69
2021/08/09 09:14:41;;;;;;;5.10;2.58;;;;;;;19.95;51.78;99571.25;4987369;28;20064;-71
2021/08/09 09:17:06;;;;;;;5.55;2.00;;;;;;;19.99;51.77;99569.16;4986926;28;20038;-72
2021/08/09 09:19:38;;;;;;;7.13;2.35;;;;;;;20.14;51.36;99566.88;4986816;28;20084;-73
2021/08/09 09:22:09;;;;;;;4.35;2.10;;;;;;;20.30;50.88;99575.16;4986876;28;20579;-73
2021/08/09 09:24:45;;;;;;;8.02;2.20;;;;;;;20.68;50.13;99573.44;4994340;28;20046;-72
2021/08/09 09:27:29;;;;;;;4.63;1.85;;;;;;;21.00;49.34;99581.06;5005923;28;20093;-71
2021/08/09 09:29:55;;;;;;;3.58;1.65;;;;;;;21.28;48.54;99582.91;5006195;28;20072;-71
2021/08/09 09:32:22;;;;;;;3.45;1.90;;;;;;;21.89;47.13;99576.91;4970460;28;20106;-72
2021/08/09 09:34:57;;;;;;;4.65;2.33;;;;;;;22.06;46.17;99592.16;5014837;28;20030;-71
2021/08/09 09:37:27;;;;;;;6.53;3.03;;;;;;;22.45;44.41;99596.38;5004883;28;20049;-71
2021/08/09 09:39:53;;;;;;;9.80;2.38;;;;;;;22.55;43.97;99589.06;5006027;28;20113;-70
2021/08/09 09:42:19;;;;;;;7.20;2.28;;;;;;;22.13;44.78;99602.31;5005970;28;20042;-72
2021/08/09 09:44:44;;;;;;;7.45;3.05;;;;;;;21.86;45.90;99596.84;5006087;28;20520;-72
2021/08/09 09:47:27;;;;;;;9.48;2.15;;;;;;;21.68;46.21;99592.44;5005622;28;20053;-70
2021/08/09 09:49:58;;;;;;;10.40;2.00;;;;;;;21.64;46.41;99594.59;5000260;28;20065;-72
2021/08/09 09:52:35;;;;;;;6.43;2.70;;;;;;;21.76;46.45;99592.56;5006222;28;20574;-69
2021/08/09 09:55:09;;;;;;;7.30;2.50;;;;;;;21.59;46.32;99581.63;5006159;28;20436;-71
2021/08/09 09:57:35;;;;;;;4.25;2.10;;;;;;;22.14;45.69;99588.69;5005391;28;20046;-71
2021/08/09 10:00:04;;;;;;;7.85;2.67;;;;;;;22.13;45.66;99599.63;5005532;28;20510;-69
2021/08/09 10:02:29;;;;;;;6.20;2.55;;;;;;;22.23;45.74;99597.72;5005469;28;20030;-71
2021/08/09 10:04:55;;;;;;;6.03;2.22;;;;;;;22.39;45.41;99588.94;5004792;28;20068;-72
2021/08/09 10:07:25;;;;;;;8.50;2.55;;;;;;;22.69;44.29;99588.50;5004596;28;20033;-71
2021/08/09 10:09:53;;;;;;;4.55;2.85;;;;;;;22.77;43.38;99597.59;5005238;28;20041;-70
2021/08/09 10:12:24;;;;;;;5.70;2.40;;;;;;;22.97;42.79;99588.31;5005364;28;20067;-69
2021/08/09 10:14:53;;;;;;;3.47;2.33;;;;;;;23.65;41.31;99589.25;5005665;28;20120;-68
2021/08/09 10:17:19;;;;;;;7.40;2.67;;;;;;;24.42;40.15;99589.88;5004590;28;20118;-70
2021/08/09 10:19:47;;;;;;;4.75;2.42;;;;;;;24.72;39.59;99592.88;5003410;28;20041;-69
2021/08/09 10:22:13;;;;;;;5.43;2.08;;;;;;;24.36;39.76;99588.66;5002175;28;20041;-69
2021/08/09 10:24:40;;;;;;;6.68;2.58;;;;;;;24.31;40.13;99593.72;5004984;28;20090;-70
2021/08/09 10:27:06;;;;;;;5.47;2.47;;;;;;;23.73;41.02;99587.47;4989579;28;20030;-70
2021/08/09 10:29:31;;;;;;;7.82;3.50;;;;;;;24.08;40.61;99585.47;4998486;28;20034;-70
2021/08/09 10:32:16;;;;;;;6.40;2.38;;;;;;;23.97;40.13;99593.88;4995146;28;20045;-71
2021/08/09 10:34:42;;;;;;;7.45;2.70;;;;;;;24.27;39.68;99589.72;5007683;28;20034;-71
2021/08/09 10:37:15;;;;;;;4.45;1.80;;;;;;;24.91;38.78;99586.25;5009988;28;20044;-70
2021/08/09 10:39:54;;;;;;;3.97;1.90;;;;;;;23.98;39.48;99593.72;5010217;28;20449;-72
2021/08/09 10:42:36;;;;;;;6.30;2.10;;;;;;;22.78;41.96;99605.50;5018821;28;20121;-70
2021/08/09 10:45:04;;;;;;;4.65;2.20;;;;;;;23.84;40.54;99598.91;4990570;28;20038;-70
2021/08/09 10:47:45;;;;;;;5.45;2.00;;;;;;;24.74;38.43;99605.19;4990013;28;20034;-68
2021/08/09 10:50:45;;;;;;;5.60;1.67;;;;;;;24.49;39.02;99593.59;5010599;28;20128;-70
2021/08/09 10:53:27;;;;;;;4.05;1.80;;;;;;;23.42;41.42;99603.31;5031283;28;20451;-72
2021/08/09 10:55:53;;;;;;;3.20;2.13;;;;;;;22.99;41.68;99601.59;5010590;28;20544;-69
2021/08/09 10:58:41;;;;;;;3.55;1.83;;;;;;;22.66;42.89;99590.63;5008171;28;20042;-71
2021/08/09 11:01:10;;;;;;;3.28;1.65;;;;;;;22.75;42.93;99608.50;5010341;28;20037;-71
2021/08/09 11:04:01;;;;;;;4.65;2.08;;;;;;;22.83;42.81;99600.47;5013823;28;20450;-72
2021/08/09 11:09:30;;;;;;;3.97;1.70;;;;;;;22.38;42.95;99604.22;5029782;28;20457;-72
2021/08/09 11:12:21;;;;;;;2.97;1.83;;;;;;;22.47;43.21;99605.97;5029972;28;20033;-72
2021/08/09 11:15:12;;;;;;;3.78;1.88;;;;;;;22.32;44.00;99609.34;5029917;28;20037;-71
2021/08/09 11:17:37;;;;;;;6.22;2.22;;;;;;;22.64;43.58;99612.31;5030912;28;20040;-70
2021/08/09 11:20:20;;;;;;;4.13;2.15;;;;;;;22.76;43.55;99612.03;5030447;28;20113;-71
2021/08/09 11:22:57;;;;;;;10.60;2.65;;;;;;;22.70;43.37;99605.44;5029845;28;20135;-71
2021/08/09 11:25:29;;;;;;;3.58;2.05;;;;;;;22.68;43.28;99602.91;5030080;28;20116;-72
2021/08/09 11:28:02;;;;;;;4.13;2.05;;;;;;;22.50;43.53;99607.50;5029009;28;20096;-70
2021/08/09 11:30:37;;;;;;;4.55;1.85;;;;;;;22.52;44.02;99605.50;5029985;28;20395;-71
2021/08/09 11:33:03;;;;;;;;;;;;;;;22.63;43.93;99607.06;5030487;28;20039;-72
2021/08/09 11:35:28;;;;;;;5.55;1.85;;;;;;;22.48;43.95;99612.19;5029820;28;19917;-72
2021/08/09 11:38:01;;;;;;;4.35;1.88;;;;;;;22.26;44.43;99610.81;5028710;28;20042;-71
2021/08/09 11:40:34;;;;;;;2.95;2.00;;;;;;;22.00;44.38;99618.75;5029557;28;20087;-71